Time;durP1;ratioP1;P1;durP2;ratioP2;P2;SDS_P1;SDS_P2;PMS_P1;PMS_P2;Temp;Humidity;BMP_temperature;BMP_pressure;BME280_temperature;BME280_humidity;BME280_pressure;Samples;Min_cycle;Max_cycle;Signal;HPM_P1;HPM_P2
2023/09/05 00:00:35;;;;;;;2.88;2.50;;;14.40;1.00;;;;;;5197143;28;20606;-61
2023/09/05 00:03:07;;;;;;;3.88;2.67;;;14.30;1.00;;;;;;5191155;28;20049;-61
2023/09/05 00:05:42;;;;;;;2.70;2.20;;;14.30;1.00;;;;;;5222891;28;20040;-61
2023/09/05 00:08:13;;;;;;;3.22;2.55;;;14.30;1.00;;;;;;5220365;28;20046;-61
2023/09/05 00:10:45;;;;;;;4.90;2.70;;;14.20;43.60;;;;;;5220565;28;20032;-61
2023/09/05 00:13:24;;;;;;;2.58;2.30;;;14.20;99.90;;;;;;5221679;28;20591;-61
2023/09/05 00:16:00;;;;;;;3.45;2.60;;;14.10;99.90;;;;;;5223441;28;20047;-62
2023/09/05 00:18:37;;;;;;;2.85;2.42;;;13.90;99.90;;;;;;5225245;28;20043;-61
2023/09/05 00:21:09;;;;;;;3.00;2.50;;;13.80;99.90;;;;;;5239861;28;20032;-62
2023/09/05 00:23:40;;;;;;;2.83;2.47;;;13.70;99.90;;;;;;5206159;28;20036;-61
2023/09/05 00:26:11;;;;;;;4.57;2.67;;;13.60;1.00;;;;;;5223617;28;20043;-59
2023/09/05 00:28:43;;;;;;;3.17;2.55;;;13.40;1.00;;;;;;5205594;28;20043;-60
2023/09/05 00:31:17;;;;;;;4.13;2.80;;;13.40;1.00;;;;;;5239501;28;20024;-62
2023/09/05 00:33:50;;;;;;;3.28;2.97;;;13.30;1.00;;;;;;5192302;28;20081;-60
2023/09/05 00:36:21;;;;;;;4.40;2.88;;;13.20;1.00;;;;;;5225125;28;20038;-61
2023/09/05 00:38:52;;;;;;;2.63;2.42;;;13.10;1.00;;;;;;5225241;28;20562;-62
2023/09/05 00:41:24;;;;;;;14.85;2.80;;;13.00;1.00;;;;;;5224782;28;20032;-60
2023/09/05 00:43:55;;;;;;;3.83;2.65;;;12.90;1.00;;;;;;5241354;28;20036;-60
2023/09/05 00:46:31;;;;;;;6.05;3.00;;;12.90;1.00;;;;;;5232541;28;20021;-62
2023/09/05 00:49:04;;;;;;;3.78;2.50;;;12.90;1.00;;;;;;5196630;28;20040;-61
2023/09/05 00:51:37;;;;;;;3.10;2.80;;;12.90;1.00;;;;;;5228574;28;20032;-61
2023/09/05 00:54:13;;;;;;;3.53;2.58;;;13.00;1.00;;;;;;5215002;28;20058;-60
2023/09/05 00:56:45;;;;;;;3.13;2.55;;;13.10;1.00;;;;;;5247415;28;20040;-61
2023/09/05 00:59:21;;;;;;;4.35;2.63;;;13.10;1.00;;;;;;5206660;28;20470;-61
2023/09/05 01:01:56;;;;;;;3.67;2.75;;;13.10;1.00;;;;;;5370841;22;20048;-71
2023/09/05 01:04:29;;;;;;;2.78;2.50;;;13.10;1.00;;;;;;5234813;28;20035;-71
2023/09/05 01:07:07;;;;;;;3.67;2.60;;;13.10;1.00;;;;;;5212073;28;20165;-72
2023/09/05 01:09:54;;;;;;;3.58;2.97;;;13.20;1.00;;;;;;5241715;28;21223;-71
2023/09/05 01:12:31;;;;;;;2.70;2.50;;;13.20;1.00;;;;;;5220800;28;20052;-70
2023/09/05 01:15:04;;;;;;;3.58;2.88;;;13.10;1.00;;;;;;5200009;28;20309;-72
2023/09/05 01:17:37;;;;;;;2.92;2.63;;;13.10;1.00;;;;;;5222997;28;20028;-70
2023/09/05 01:20:10;;;;;;;3.30;2.88;;;12.90;1.00;;;;;;5220947;28;20031;-71
2023/09/05 01:22:57;;;;;;;5.50;2.78;;;12.80;1.00;;;;;;5193465;28;20039;-71
2023/09/05 01:25:30;;;;;;;5.15;2.50;;;12.70;1.00;;;;;;5241326;28;20023;-71
2023/09/05 01:28:02;;;;;;;3.75;2.85;;;12.70;1.00;;;;;;5223749;28;20040;-70
2023/09/05 01:30:33;;;;;;;4.07;2.92;;;12.50;1.00;;;;;;5221198;28;20388;-70
2023/09/05 01:33:05;;;;;;;6.72;2.97;;;12.40;1.00;;;;;;5223654;28;20040;-71
2023/09/05 01:35:37;;;;;;;3.92;2.35;;;12.40;1.00;;;;;;5223107;28;20038;-71
2023/09/05 01:38:11;;;;;;;3.05;2.50;;;12.30;1.00;;;;;;5199468;28;20036;-70
2023/09/05 01:40:45;;;;;;;2.90;2.65;;;12.30;1.00;;;;;;5221789;28;20033;-71
2023/09/05 01:43:18;;;;;;;4.87;3.20;;;12.30;6.30;;;;;;5228623;28;20039;-71
2023/09/05 01:45:50;;;;;;;3.10;2.80;;;12.40;22.80;;;;;;5214932;28;20446;-70
2023/09/05 01:48:23;;;;;;;2.80;2.15;;;12.40;1.00;;;;;;5197280;28;20036;-70
2023/09/05 01:50:56;;;;;;;4.30;3.13;;;12.40;1.00;;;;;;5237546;28;20047;-71
2023/09/05 01:53:28;;;;;;;2.30;2.10;;;12.40;2.00;;;;;;5223130;28;20050;-71
2023/09/05 01:55:59;;;;;;;3.00;2.70;;;12.30;1.00;;;;;;5221611;28;20036;-70
2023/09/05 01:58:32;;;;;;;4.57;2.90;;;12.30;33.60;;;;;;5204852;28;20051;-70
2023/09/05 02:01:06;;;;;;;3.33;2.43;;;12.20;26.90;;;;;;5217358;28;20032;-70
2023/09/05 02:03:40;;;;;;;3.28;2.33;;;12.20;48.10;;;;;;5225336;28;20353;-70
2023/09/05 02:06:14;;;;;;;4.95;3.17;;;12.20;83.00;;;;;;5218230;28;20047;-70
2023/09/05 02:08:48;;;;;;;4.20;2.40;;;12.20;99.90;;;;;;5202741;28;20042;-70
2023/09/05 02:11:23;;;;;;;4.25;2.20;;;12.30;99.90;;;;;;5218978;28;20051;-70
2023/09/05 02:13:56;;;;;;;4.40;3.13;;;12.20;99.90;;;;;;5219160;28;20059;-70
2023/09/05 02:16:28;;;;;;;3.60;2.80;;;12.30;97.70;;;;;;5215422;28;20033;-71
2023/09/05 02:18:59;;;;;;;3.45;2.58;;;12.30;99.90;;;;;;5219975;28;20029;-71
2023/09/05 02:21:32;;;;;;;4.00;2.70;;;12.30;99.90;;;;;;5219071;28;20039;-70
2023/09/05 02:24:03;;;;;;;3.60;2.63;;;12.20;99.90;;;;;;5220149;28;20345;-70
2023/09/05 02:26:35;;;;;;;3.30;2.80;;;12.20;99.90;;;;;;5199876;28;20037;-70
2023/09/05 02:29:08;;;;;;;3.05;2.45;;;12.10;99.90;;;;;;5197971;28;20040;-70
2023/09/05 02:31:42;;;;;;;3.63;3.17;;;12.00;99.90;;;;;;5188322;28;20241;-70
2023/09/05 02:34:14;;;;;;;3.97;3.07;;;11.90;99.90;;;;;;5216948;28;20650;-70
2023/09/05 02:36:48;;;;;;;3.28;2.67;;;11.90;99.90;;;;;;5218983;28;20060;-70
2023/09/05 02:39:21;;;;;;;4.30;2.65;;;11.80;99.90;;;;;;5203575;28;20173;-71
2023/09/05 02:41:55;;;;;;;4.40;2.88;;;11.70;99.90;;;;;;5220306;28;20511;-70
2023/09/05 02:44:26;;;;;;;5.72;3.35;;;11.70;99.90;;;;;;5201946;28;20028;-70
2023/09/05 02:47:02;;;;;;;4.35;3.42;;;11.60;99.90;;;;;;5215076;28;20020;-70
2023/09/05 02:49:34;;;;;;;2.95;2.65;;;11.50;99.90;;;;;;5219570;28;20035;-70
2023/09/05 02:52:07;;;;;;;5.93;2.90;;;11.50;99.90;;;;;;5194072;28;20059;-70
2023/09/05 02:54:38;;;;;;;4.40;3.22;;;11.50;99.90;;;;;;5202886;28;20619;-70
2023/09/05 02:57:10;;;;;;;3.38;2.88;;;11.50;99.90;;;;;;5219476;28;20029;-70
2023/09/05 02:59:41;;;;;;;4.00;2.80;;;11.40;99.90;;;;;;5201883;28;20044;-69
2023/09/05 03:02:14;;;;;;;5.65;2.83;;;11.50;99.90;;;;;;5203908;28;20047;-72
2023/09/05 03:04:51;;;;;;;4.70;3.17;;;11.50;99.90;;;;;;5207871;28;20037;-70
2023/09/05 03:07:22;;;;;;;3.83;3.17;;;11.50;99.90;;;;;;5204243;28;20024;-69
2023/09/05 03:09:53;;;;;;;4.88;3.10;;;11.50;99.90;;;;;;5243037;28;20028;-70
2023/09/05 03:12:24;;;;;;;4.10;3.08;;;11.60;99.90;;;;;;5233534;28;20077;-70
2023/09/05 03:14:59;;;;;;;7.00;3.00;;;11.60;99.90;;;;;;5206385;28;20367;-70
2023/09/05 03:17:33;;;;;;;4.50;3.33;;;11.60;99.90;;;;;;5203996;28;20036;-69
2023/09/05 03:20:04;;;;;;;7.78;3.22;;;11.50;99.90;;;;;;5207255;28;20051;-70
2023/09/05 03:22:35;;;;;;;4.47;3.10;;;11.50;99.90;;;;;;5204602;28;20569;-70
2023/09/05 03:25:07;;;;;;;3.45;3.00;;;11.50;99.90;;;;;;5188341;28;20032;-71
2023/09/05 03:27:41;;;;;;;4.00;2.78;;;11.50;99.90;;;;;;5202473;28;20052;-70
2023/09/05 03:30:12;;;;;;;4.95;3.40;;;11.50;99.90;;;;;;5237896;28;20044;-70
2023/09/05 03:32:43;;;;;;;5.03;3.40;;;11.50;99.90;;;;;;5229389;28;20042;-70
2023/09/05 03:35:17;;;;;;;5.15;3.50;;;11.50;99.90;;;;;;5205040;28;20036;-70
2023/09/05 03:37:48;;;;;;;4.13;3.33;;;11.60;99.90;;;;;;5225832;28;20029;-69
2023/09/05 03:40:19;;;;;;;4.57;3.47;;;11.60;99.90;;;;;;5208646;28;20036;-70
2023/09/05 03:42:53;;;;;;;4.47;3.22;;;11.60;99.90;;;;;;5236127;28;20041;-70
2023/09/05 03:45:27;;;;;;;4.07;3.17;;;11.60;99.90;;;;;;5213180;28;20054;-70
2023/09/05 03:48:01;;;;;;;3.42;2.97;;;11.60;99.90;;;;;;5198606;28;20554;-72
2023/09/05 03:50:35;;;;;;;4.45;3.60;;;11.50;99.90;;;;;;5226417;28;20043;-70
2023/09/05 03:53:06;;;;;;;5.50;4.30;;;11.40;99.90;;;;;;5210004;28;20067;-70
2023/09/05 03:55:37;;;;;;;7.38;4.55;;;11.40;99.90;;;;;;5210349;28;20036;-69
2023/09/05 03:58:11;;;;;;;4.43;3.60;;;11.40;99.90;;;;;;5224033;28;20029;-71
2023/09/05 04:00:42;;;;;;;5.13;3.10;;;11.40;99.90;;;;;;5201152;28;20037;-70
2023/09/05 04:03:18;;;;;;;6.18;3.50;;;11.30;99.90;;;;;;5228343;28;20598;-70
2023/09/05 04:05:49;;;;;;;5.60;3.08;;;11.20;99.90;;;;;;5225414;28;20451;-70
2023/09/05 04:08:20;;;;;;;4.32;3.17;;;11.20;99.90;;;;;;5226247;28;20044;-70
2023/09/05 04:10:59;;;;;;;4.57;3.00;;;11.20;99.90;;;;;;5226472;28;20039;-70
2023/09/05 04:13:34;;;;;;;5.88;3.65;;;11.10;99.90;;;;;;5239097;28;20041;-70
2023/09/05 04:16:05;;;;;;;5.35;3.33;;;11.10;99.90;;;;;;5224754;28;20516;-70
2023/09/05 04:18:39;;;;;;;5.25;3.72;;;11.20;99.90;;;;;;5225113;28;20345;-70
2023/09/05 04:21:12;;;;;;;3.88;2.80;;;11.10;99.90;;;;;;5226111;28;20431;-70
2023/09/05 04:23:51;;;;;;;5.90;3.97;;;11.10;99.90;;;;;;5226596;28;20028;-70
2023/09/05 04:26:25;;;;;;;4.38;3.25;;;11.20;99.90;;;;;;5226267;28;20032;-69
2023/09/05 04:28:59;;;;;;;4.03;3.15;;;11.20;99.90;;;;;;5243855;28;20029;-70
2023/09/05 04:31:33;;;;;;;7.53;3.75;;;11.10;99.90;;;;;;5238690;28;20562;-69
2023/09/05 04:34:09;;;;;;;5.75;3.20;;;11.00;99.90;;;;;;5224101;28;20044;-70
2023/09/05 04:36:40;;;;;;;5.00;3.58;;;11.10;99.90;;;;;;5220739;28;20260;-70
2023/09/05 04:39:14;;;;;;;4.22;3.45;;;11.30;99.90;;;;;;5224430;28;20360;-70
2023/09/05 04:41:50;;;;;;;3.58;3.00;;;11.40;99.90;;;;;;5232650;28;20066;-70
2023/09/05 04:44:21;;;;;;;3.22;2.88;;;11.50;99.90;;;;;;5235247;28;20050;-70
2023/09/05 04:47:14;;;;;;;5.80;3.88;;;11.60;99.90;;;;;;5216873;28;20412;-69
2023/09/05 04:49:46;;;;;;;4.13;3.40;;;11.80;99.90;;;;;;5237092;28;20033;-70
2023/09/05 04:52:19;;;;;;;9.52;3.47;;;11.90;99.90;;;;;;5219188;28;20033;-70
2023/09/05 04:54:50;;;;;;;3.38;2.67;;;12.10;99.90;;;;;;5221498;28;20041;-70
2023/09/05 04:57:22;;;;;;;4.60;3.42;;;12.20;99.90;;;;;;5207730;28;20317;-70
2023/09/05 04:59:57;;;;;;;3.67;2.85;;;12.40;99.90;;;;;;5239993;28;20034;-70
2023/09/05 05:02:33;;;;;;;4.13;3.20;;;12.50;99.90;;;;;;5237495;28;20435;-70
2023/09/05 05:05:06;;;;;;;4.85;3.00;;;12.70;99.90;;;;;;5207581;28;20322;-71
2023/09/05 05:07:37;;;;;;;4.28;3.28;;;12.90;99.90;;;;;;5222168;28;20096;-70
2023/09/05 05:10:12;;;;;;;4.70;3.10;;;13.00;99.90;;;;;;5211642;28;20050;-70
2023/09/05 05:12:43;;;;;;;2.63;2.40;;;13.40;90.00;;;;;;5201168;28;20033;-72
2023/09/05 05:15:17;;;;;;;4.30;3.05;;;13.60;1.00;;;;;;5202663;28;20035;-69
2023/09/05 05:17:48;;;;;;;4.43;3.50;;;13.90;1.00;;;;;;5221778;28;20032;-70
2023/09/05 05:20:21;;;;;;;3.13;2.83;;;14.20;1.00;;;;;;5229463;28;20245;-70
2023/09/05 05:22:54;;;;;;;3.38;2.63;;;14.40;1.00;;;;;;5196021;28;20035;-72
2023/09/05 05:25:33;;;;;;;3.55;3.10;;;14.60;1.00;;;;;;5223688;28;20513;-70
2023/09/05 05:28:10;;;;;;;3.38;2.92;;;14.90;1.00;;;;;;5223068;28;20039;-70
2023/09/05 05:30:44;;;;;;;3.10;2.80;;;15.20;99.90;;;;;;5204684;28;20035;-70
2023/09/05 05:33:17;;;;;;;3.03;2.70;;;15.10;99.90;;;;;;5240238;28;20028;-70
2023/09/05 05:35:53;;;;;;;2.78;2.55;;;15.30;99.90;;;;;;5209681;28;20273;-70
2023/09/05 05:38:25;;;;;;;5.07;2.65;;;15.60;99.90;;;;;;5207450;28;20039;-71
2023/09/05 05:41:07;;;;;;;4.07;2.33;;;15.90;1.00;;;;;;5202772;28;20458;-70
2023/09/05 05:43:39;;;;;;;5.63;2.90;;;16.10;1.00;;;;;;5216787;28;20349;-69
2023/09/05 05:46:14;;;;;;;3.33;2.65;;;16.40;99.90;;;;;;5203730;28;20202;-71
2023/09/05 05:48:45;;;;;;;2.80;2.50;;;16.60;99.90;;;;;;5223345;28;20043;-70
2023/09/05 05:51:19;;;;;;;4.82;3.15;;;16.60;99.90;;;;;;5223600;28;20041;-70
2023/09/05 05:53:50;;;;;;;3.00;2.70;;;16.90;99.90;;;;;;5239337;28;20036;-70
2023/09/05 05:56:21;;;;;;;4.70;2.85;;;17.20;99.90;;;;;;5206237;28;20032;-71
2023/09/05 05:58:52;;;;;;;3.08;2.50;;;17.20;99.90;;;;;;5238469;28;20020;-71
2023/09/05 06:01:28;;;;;;;3.05;2.70;;;17.40;99.90;;;;;;5218289;28;20033;-70
2023/09/05 06:04:02;;;;;;;3.20;2.63;;;17.70;99.90;;;;;;5240773;28;20424;-70
2023/09/05 06:06:36;;;;;;;3.53;2.92;;;18.00;99.90;;;;;;5223007;28;20038;-70
2023/09/05 06:09:07;;;;;;;3.75;2.95;;;18.20;99.90;;;;;;5256017;28;20253;-70
2023/09/05 06:11:38;;;;;;;2.65;2.20;;;18.50;99.90;;;;;;5220017;28;20042;-70
2023/09/05 06:14:10;;;;;;;4.60;3.30;;;18.60;1.00;;;;;;5222289;28;20036;-72
2023/09/05 06:16:45;;;;;;;2.85;2.47;;;18.70;1.00;;;;;;5237764;28;20037;-69
2023/09/05 06:19:17;;;;;;;4.22;3.03;;;18.80;1.00;;;;;;5222392;28;20022;-70
2023/09/05 06:21:48;;;;;;;4.45;3.38;;;18.80;1.00;;;;;;5222739;28;20032;-70
2023/09/05 06:24:22;;;;;;;2.60;2.40;;;18.80;1.00;;;;;;5240204;28;20028;-71
2023/09/05 06:26:54;;;;;;;5.90;3.08;;;18.90;99.90;;;;;;5205089;28;20028;-71
2023/09/05 06:29:25;;;;;;;3.90;3.00;;;19.20;1.00;;;;;;5205465;28;20034;-73
2023/09/05 06:31:56;;;;;;;4.38;3.00;;;19.40;1.00;;;;;;5237300;28;20031;-71
2023/09/05 06:34:28;;;;;;;5.45;3.50;;;19.70;1.00;;;;;;5240100;28;20300;-69
2023/09/05 06:37:01;;;;;;;4.78;2.88;;;19.80;1.00;;;;;;5240692;28;20030;-70
2023/09/05 06:39:36;;;;;;;5.13;3.00;;;19.50;1.00;;;;;;5222040;28;20066;-70
2023/09/05 06:42:09;;;;;;;3.40;2.88;;;19.50;1.00;;;;;;5222251;28;20031;-70
2023/09/05 06:44:43;;;;;;;3.22;2.80;;;19.70;1.00;;;;;;5248971;28;20029;-70
2023/09/05 06:47:18;;;;;;;3.08;2.75;;;19.60;1.00;;;;;;5182778;28;20108;-70
2023/09/05 06:49:49;;;;;;;3.70;2.95;;;19.90;1.00;;;;;;5235264;28;20497;-69
2023/09/05 06:52:23;;;;;;;7.05;2.90;;;20.10;1.00;;;;;;5238694;28;20303;-72
2023/09/05 06:54:54;;;;;;;4.25;2.92;;;20.30;1.00;;;;;;5217633;28;20041;-70
2023/09/05 06:57:26;;;;;;;3.60;2.72;;;20.50;1.00;;;;;;5227162;28;20036;-70
2023/09/05 06:59:57;;;;;;;6.20;2.90;;;20.50;1.00;;;;;;5203850;28;20028;-70
2023/09/05 07:02:28;;;;;;;3.58;2.58;;;20.70;1.00;;;;;;5211858;28;20047;-71
2023/09/05 07:05:00;;;;;;;4.57;3.13;;;20.00;99.90;;;;;;5218794;28;20041;-71
2023/09/05 07:07:31;;;;;;;5.25;3.10;;;20.20;1.00;;;;;;5200703;28;20067;-70
2023/09/05 07:10:05;;;;;;;3.95;2.78;;;20.50;1.00;;;;;;5219256;28;20025;-71
2023/09/05 07:12:36;;;;;;;4.78;3.00;;;20.80;99.90;;;;;;5226195;28;20025;-71
2023/09/05 07:15:08;;;;;;;3.40;2.83;;;20.80;1.00;;;;;;5221787;28;20045;-71
2023/09/05 07:17:40;;;;;;;3.20;2.15;;;20.30;1.00;;;;;;5224206;28;20300;-71
2023/09/05 07:20:11;;;;;;;7.80;2.97;;;20.20;1.00;;;;;;5224318;28;20051;-70
2023/09/05 07:22:43;;;;;;;7.97;3.22;;;20.00;1.00;;;;;;5227300;28;20295;-71
2023/09/05 07:25:14;;;;;;;6.30;3.42;;;19.80;1.00;;;;;;5242112;28;20041;-71
2023/09/05 07:27:45;;;;;;;6.30;2.65;;;19.60;1.00;;;;;;5221324;28;20028;-71
2023/09/05 07:30:16;;;;;;;3.60;2.80;;;19.80;1.00;;;;;;5202092;28;20331;-70
2023/09/05 07:32:48;;;;;;;4.40;2.88;;;19.70;1.00;;;;;;5218968;28;20404;-71
2023/09/05 07:35:20;;;;;;;6.07;2.55;;;20.30;1.00;;;;;;5206880;28;20373;-71
2023/09/05 07:37:51;;;;;;;4.03;2.63;;;20.90;1.00;;;;;;5207116;28;20279;-72
2023/09/05 07:40:26;;;;;;;3.90;2.90;;;21.20;1.00;;;;;;5205764;28;20027;-71
2023/09/05 07:43:00;;;;;;;3.83;2.53;;;21.80;1.00;;;;;;5203638;28;20183;-72
2023/09/05 07:45:32;;;;;;;3.95;2.35;;;22.40;1.00;;;;;;5200649;28;20052;-70
2023/09/05 07:48:07;;;;;;;4.82;2.80;;;22.80;94.70;;;;;;5203664;28;20164;-71
2023/09/05 07:50:38;;;;;;;6.00;3.15;;;23.10;99.90;;;;;;5205589;28;20045;-71
2023/09/05 07:53:10;;;;;;;4.68;3.00;;;22.90;45.60;;;;;;5224073;28;20036;-70
2023/09/05 07:55:41;;;;;;;3.80;2.63;;;22.90;1.00;;;;;;5206790;28;20396;-71
2023/09/05 07:58:13;;;;;;;4.57;2.40;;;23.30;1.00;;;;;;5202981;28;20033;-72
2023/09/05 08:00:47;;;;;;;3.83;2.72;;;23.60;1.00;;;;;;5200148;28;20030;-70
2023/09/05 08:03:26;;;;;;;3.40;2.78;;;23.90;99.90;;;;;;5224156;28;20041;-71
2023/09/05 08:05:57;;;;;;;4.85;2.67;;;24.10;1.00;;;;;;5207879;28;20236;-71
2023/09/05 08:08:31;;;;;;;4.15;2.65;;;24.00;1.00;;;;;;5206388;28;20041;-71
2023/09/05 08:11:06;;;;;;;3.35;2.80;;;23.60;1.00;;;;;;5207537;28;20241;-71
2023/09/05 08:13:37;;;;;;;4.75;2.33;;;23.50;1.00;;;;;;5223746;28;20029;-70
2023/09/05 08:16:10;;;;;;;4.40;2.67;;;23.10;1.00;;;;;;5221075;28;20043;-70
2023/09/05 08:18:44;;;;;;;4.43;2.83;;;23.20;99.90;;;;;;5224230;28;20028;-70
2023/09/05 08:21:23;;;;;;;2.97;2.42;;;23.60;99.90;;;;;;5225006;28;20025;-70
2023/09/05 08:23:54;;;;;;;2.97;2.05;;;24.10;1.00;;;;;;5228315;28;20059;-70
2023/09/05 08:26:25;;;;;;;2.60;2.35;;;24.20;1.00;;;;;;5220170;28;20036;-71
2023/09/05 08:28:56;;;;;;;4.88;2.50;;;24.40;99.90;;;;;;5203992;28;20103;-70
2023/09/05 08:31:30;;;;;;;4.72;2.90;;;24.20;1.00;;;;;;5201205;28;20273;-70
2023/09/05 08:34:04;;;;;;;3.15;2.40;;;24.20;1.00;;;;;;5204308;28;20048;-70
2023/09/05 08:36:41;;;;;;;4.68;3.20;;;24.00;1.00;;;;;;5203205;28;20029;-69
2023/09/05 08:39:12;;;;;;;3.33;2.42;;;24.00;1.00;;;;;;5222365;28;20025;-70
2023/09/05 08:41:43;;;;;;;3.55;2.45;;;24.20;1.00;;;;;;5222411;28;20033;-71
2023/09/05 08:44:15;;;;;;;4.00;2.90;;;24.50;99.90;;;;;;5219835;28;20036;-71
2023/09/05 08:46:50;;;;;;;3.10;2.33;;;24.70;5.00;;;;;;5200734;28;20035;-71
2023/09/05 08:49:21;;;;;;;4.60;2.00;;;24.50;1.00;;;;;;5202777;28;20040;-72
2023/09/05 08:51:57;;;;;;;2.60;2.17;;;25.00;5.20;;;;;;5202384;28;20419;-73
2023/09/05 08:54:31;;;;;;;2.78;2.13;;;25.40;99.90;;;;;;5199414;28;20067;-71
2023/09/05 08:57:03;;;;;;;;;;;25.00;1.00;;;;;;5205482;28;20033;-73
2023/09/05 08:59:34;;;;;;;3.22;2.40;;;24.60;1.00;;;;;;5218444;28;20046;-73
2023/09/05 09:02:08;;;;;;;4.07;2.20;;;24.30;1.00;;;;;;5199244;28;20041;-71
2023/09/05 09:04:52;;;;;;;;;;;24.50;1.00;;;;;;5225328;28;20031;-71
2023/09/05 09:07:29;;;;;;;2.90;2.35;;;25.00;1.00;;;;;;5223107;28;19915;-71
2023/09/05 09:10:16;;;;;;;2.40;2.13;;;25.60;1.00;;;;;;5222027;28;20239;-72
2023/09/05 09:12:55;;;;;;;4.47;2.35;;;25.70;99.90;;;;;;5197592;28;20032;-72
2023/09/05 09:15:29;;;;;;;2.15;1.83;;;26.00;49.20;;;;;;5239595;28;20276;-71
2023/09/05 09:18:00;;;;;;;2.37;2.03;;;26.20;99.90;;;;;;5206674;28;20636;-71
2023/09/05 09:20:43;;;;;;;3.22;2.17;;;26.30;1.00;;;;;;5224376;28;20263;-71
2023/09/05 09:23:26;;;;;;;2.70;2.05;;;26.50;1.00;;;;;;5206941;28;20043;-70
2023/09/05 09:26:04;;;;;;;3.22;2.20;;;26.20;99.90;;;;;;5241948;28;20024;-71
2023/09/05 09:28:37;;;;;;;3.50;2.17;;;26.40;1.00;;;;;;5223987;28;20069;-70
2023/09/05 09:31:13;;;;;;;3.75;2.30;;;26.60;1.00;;;;;;5204630;28;20106;-71
2023/09/05 09:33:57;;;;;;;3.90;2.25;;;26.60;1.00;;;;;;5220754;28;20035;-71
2023/09/05 09:36:37;;;;;;;3.95;2.60;;;26.50;1.00;;;;;;5222757;28;20032;-74
2023/09/05 09:39:12;;;;;;;2.22;2.03;;;26.70;1.00;;;;;;5207448;28;20520;-70
2023/09/05 09:41:45;;;;;;;3.40;2.70;;;26.80;1.00;;;;;;5223857;28;20371;-71
2023/09/05 09:44:30;;;;;;;3.13;2.58;;;27.00;1.00;;;;;;5206302;28;20395;-72
2023/09/05 09:47:02;;;;;;;3.03;1.90;;;27.20;1.00;;;;;;5183635;28;20273;-71
2023/09/05 09:49:36;;;;;;;3.28;2.20;;;27.40;1.00;;;;;;5202631;28;20368;-73
2023/09/05 09:52:16;;;;;;;2.15;1.95;;;27.00;1.00;;;;;;5203773;28;20021;-71
2023/09/05 09:54:53;;;;;;;2.67;2.05;;;27.00;99.90;;;;;;5219342;28;20051;-74
2023/09/05 09:57:33;;;;;;;2.78;1.83;;;27.20;1.00;;;;;;5228507;28;20420;-72
2023/09/05 10:00:15;;;;;;;2.45;2.05;;;27.30;1.00;;;;;;5220851;28;20020;-71
2023/09/05 10:02:49;;;;;;;3.47;2.00;;;27.40;99.90;;;;;;5238560;28;20063;-71
2023/09/05 10:05:24;;;;;;;2.92;2.22;;;27.70;1.00;;;;;;5185739;28;20041;-71
2023/09/05 10:07:58;;;;;;;3.10;2.20;;;27.80;99.90;;;;;;5189731;28;20037;-72
2023/09/05 10:10:30;;;;;;;3.13;1.95;;;28.00;76.30;;;;;;5185333;28;20449;-71
2023/09/05 10:13:02;;;;;;;2.15;1.70;;;28.40;1.00;;;;;;5188014;28;20065;-71
2023/09/05 10:15:39;;;;;;;3.13;2.22;;;29.00;1.00;;;;;;5216964;28;20041;-71
2023/09/05 10:18:12;;;;;;;3.42;2.30;;;29.60;1.00;;;;;;5218257;28;20229;-70
2023/09/05 10:20:48;;;;;;;4.32;2.55;;;29.70;1.00;;;;;;5197305;28;20036;-70
2023/09/05 10:23:23;;;;;;;5.95;2.15;;;30.10;1.00;;;;;;5220637;28;20024;-71
2023/09/05 10:25:55;;;;;;;3.10;2.40;;;30.10;1.00;;;;;;5205963;28;20316;-70
2023/09/05 10:28:31;;;;;;;3.80;2.20;;;31.40;1.00;;;;;;5206843;28;20051;-71
2023/09/05 10:31:15;;;;;;;2.90;2.40;;;31.70;1.00;;;;;;5183863;28;20264;-70
2023/09/05 10:33:47;;;;;;;3.20;2.15;;;31.90;1.00;;;;;;5198393;28;20025;-72
2023/09/05 10:36:46;;;;;;;2.20;1.90;;;31.30;1.00;;;;;;5203152;28;20036;-71
2023/09/05 10:39:32;;;;;;;3.35;2.08;;;31.40;99.90;;;;;;5206273;28;20050;-70
2023/09/05 10:42:04;;;;;;;3.08;2.30;;;31.40;99.90;;;;;;5224621;28;20035;-71
2023/09/05 10:44:35;;;;;;;4.35;2.53;;;31.70;99.90;;;;;;5207941;28;20033;-71
2023/09/05 10:47:29;;;;;;;5.47;2.45;;;31.80;99.90;;;;;;5221139;28;20036;-70
2023/09/05 10:50:06;;;;;;;2.75;2.10;;;32.40;17.10;;;;;;5203345;28;20287;-71
2023/09/05 10:52:40;;;;;;;3.53;2.00;;;32.40;99.90;;;;;;5234581;28;20036;-72
2023/09/05 10:55:32;;;;;;;;;;;32.40;99.90;;;;;;5188031;28;20345;-71
2023/09/05 10:58:53;;;;;;;4.38;2.00;;;33.50;99.90;;;;;;5192790;28;19909;-70
2023/09/05 11:01:31;;;;;;;2.15;1.95;;;35.10;99.90;;;;;;5197883;28;20233;-72
2023/09/05 11:04:07;;;;;;;2.03;1.60;;;35.80;1.00;;;;;;5197707;28;20041;-71
2023/09/05 11:06:44;;;;;;;2.03;1.88;;;34.70;1.00;;;;;;5184517;28;20033;-70
2023/09/05 11:09:16;;;;;;;2.22;2.03;;;34.10;1.00;;;;;;5189986;28;20298;-71
2023/09/05 11:11:47;;;;;;;4.95;1.95;;;33.90;1.00;;;;;;5221433;28;20316;-71
2023/09/05 11:14:38;;;;;;;2.25;1.80;;;33.90;1.00;;;;;;5204722;28;20048;-70
2023/09/05 11:17:16;;;;;;;5.93;1.98;;;34.30;1.00;;;;;;5236478;28;20027;-73
2023/09/05 11:19:50;;;;;;;1.70;1.60;;;34.40;1.00;;;;;;5205308;28;20033;-71
2023/09/05 11:22:23;;;;;;;2.40;2.20;;;34.90;1.00;;;;;;5223556;28;20240;-71
2023/09/05 11:24:58;;;;;;;2.15;1.95;;;35.50;1.00;;;;;;5238599;28;20059;-71
2023/09/05 11:27:32;;;;;;;2.95;2.13;;;36.00;1.00;;;;;;5233826;28;20032;-71
2023/09/05 11:30:06;;;;;;;2.58;2.20;;;36.10;1.00;;;;;;5220386;28;20131;-71
2023/09/05 11:32:39;;;;;;;3.35;2.40;;;36.70;1.00;;;;;;5240090;28;20029;-71
2023/09/05 11:35:10;;;;;;;3.30;2.23;;;37.20;1.00;;;;;;5222731;28;20035;-72
2023/09/05 11:37:45;;;;;;;2.28;1.73;;;38.10;1.00;;;;;;5205918;28;20042;-71
2023/09/05 11:40:25;;;;;;;1.95;1.75;;;38.00;1.00;;;;;;5204448;28;20024;-71
2023/09/05 11:43:03;;;;;;;3.05;1.75;;;38.00;1.00;;;;;;5205198;28;20039;-72
2023/09/05 11:45:35;;;;;;;5.10;1.98;;;37.40;1.00;;;;;;5201944;28;20039;-72
2023/09/05 11:48:11;;;;;;;2.05;1.85;;;37.40;1.00;;;;;;5220790;28;20028;-71
2023/09/05 11:50:44;;;;;;;2.55;2.08;;;36.80;1.00;;;;;;5203958;28;20122;-73
2023/09/05 11:53:22;;;;;;;3.28;2.30;;;35.10;1.00;;;;;;5219189;28;20038;-71
2023/09/05 11:55:53;;;;;;;1.70;1.60;;;35.20;1.00;;;;;;5221004;28;20036;-72
2023/09/05 11:58:26;;;;;;;3.08;1.63;;;35.10;1.00;;;;;;5201640;28;20096;-70
2023/09/05 12:00:57;;;;;;;2.58;1.83;;;35.50;1.00;;;;;;5219936;28;20034;-70
2023/09/05 12:03:29;;;;;;;2.03;1.75;;;35.40;1.00;;;;;;5225126;28;20034;-71
2023/09/05 12:06:04;;;;;;;2.22;1.80;;;35.30;1.00;;;;;;5242742;28;20028;-71
2023/09/05 12:08:35;;;;;;;1.70;1.42;;;35.50;1.00;;;;;;5207782;28;20043;-71
2023/09/05 12:11:07;;;;;;;2.85;1.88;;;35.30;1.00;;;;;;5192352;28;20116;-71
2023/09/05 12:13:43;;;;;;;1.98;1.88;;;35.10;1.00;;;;;;5208163;28;20046;-70
2023/09/05 12:16:19;;;;;;;1.90;1.70;;;36.10;1.00;;;;;;5220314;28;20041;-71
2023/09/05 12:19:03;;;;;;;2.67;1.60;;;37.50;1.00;;;;;;5204318;28;20044;-71
2023/09/05 12:21:40;;;;;;;2.35;2.15;;;37.40;1.00;;;;;;5220296;28;20032;-71
2023/09/05 12:24:20;;;;;;;2.20;1.92;;;36.80;1.00;;;;;;5224250;28;20244;-71
2023/09/05 12:26:59;;;;;;;3.40;1.95;;;36.30;1.00;;;;;;5243362;28;20028;-73
2023/09/05 12:29:42;;;;;;;2.28;1.83;;;36.00;1.00;;;;;;5242902;28;20561;-71
2023/09/05 12:32:16;;;;;;;1.83;1.60;;;35.70;1.00;;;;;;5240226;28;20036;-71
2023/09/05 12:34:47;;;;;;;2.60;2.10;;;34.80;1.00;;;;;;5224693;28;20028;-71
2023/09/05 12:37:19;;;;;;;2.88;1.90;;;35.10;1.00;;;;;;5225179;28;20036;-72
2023/09/05 12:39:51;;;;;;;2.35;1.90;;;35.20;1.00;;;;;;5225085;28;20526;-70
2023/09/05 12:42:23;;;;;;;2.88;1.88;;;36.00;1.00;;;;;;5224323;28;20042;-71
2023/09/05 12:44:57;;;;;;;3.92;1.95;;;35.30;1.00;;;;;;5224073;28;20368;-70
2023/09/05 12:47:29;;;;;;;4.57;2.10;;;35.60;1.00;;;;;;5204792;28;20573;-71
2023/09/05 12:50:01;;;;;;;1.95;1.73;;;35.30;1.00;;;;;;5223888;28;20037;-70
2023/09/05 12:52:32;;;;;;;3.20;1.67;;;34.10;1.00;;;;;;5224233;28;20028;-71
2023/09/05 12:55:04;;;;;;;2.60;1.88;;;34.50;1.00;;;;;;5243155;28;20047;-72
2023/09/05 12:57:40;;;;;;;2.47;2.10;;;34.60;1.00;;;;;;5213941;28;20033;-71
2023/09/05 13:00:12;;;;;;;1.85;1.52;;;34.20;1.00;;;;;;5184386;28;20028;-72
2023/09/05 13:02:44;;;;;;;4.90;1.83;;;34.00;1.00;;;;;;5221497;28;20058;-72
2023/09/05 13:05:16;;;;;;;3.33;1.73;;;35.30;1.00;;;;;;5225372;28;20268;-71
2023/09/05 13:07:47;;;;;;;3.75;2.03;;;36.40;1.00;;;;;;5207832;28;20033;-71
2023/09/05 13:10:21;;;;;;;2.45;1.88;;;35.90;1.00;;;;;;5241091;28;20369;-71
2023/09/05 13:12:53;;;;;;;3.72;1.70;;;35.60;1.00;;;;;;5219912;28;20032;-71
2023/09/05 13:15:26;;;;;;;2.10;1.52;;;34.80;1.00;;;;;;5200732;28;20651;-71
2023/09/05 13:18:00;;;;;;;3.75;1.85;;;35.50;1.00;;;;;;5206279;28;20017;-70
2023/09/05 13:20:32;;;;;;;;;;;35.80;1.00;;;;;;5224566;28;20038;-70
2023/09/05 13:23:03;;;;;;;2.33;1.90;;;36.00;1.00;;;;;;5225214;28;19908;-71
2023/09/05 13:25:37;;;;;;;2.53;1.98;;;35.80;1.00;;;;;;5224156;28;20248;-73
2023/09/05 13:28:16;;;;;;;1.98;1.70;;;36.00;1.00;;;;;;5208009;28;20028;-71